Time;durP1;ratioP1;P1;durP2;ratioP2;P2;SDS_P1;SDS_P2;PMS_P1;PMS_P2;Temp;Humidity;BMP_temperature;BMP_pressure;BME280_temperature;BME280_humidity;BME280_pressure;Samples;Min_cycle;Max_cycle;Signal;HPM_P1;HPM_P2
2023/10/27 00:00:50;;;;;;;44.42;29.40;;;;;;;;;;5137044;27;20205;-78
2023/10/27 00:03:16;;;;;;;39.03;29.25;;;;;;;;;;5154683;27;20050;-79
2023/10/27 00:05:42;;;;;;;46.08;30.52;;;;;;;;;;5154152;27;20100;-79
2023/10/27 00:08:08;;;;;;;53.45;30.35;;;;;;;;;;5155181;27;20061;-79
2023/10/27 00:10:37;;;;;;;39.65;28.60;;;;;;;;;;5120042;27;20042;-79
2023/10/27 00:13:04;;;;;;;41.53;29.50;;;;;;;;;;5137039;27;20398;-79
2023/10/27 00:15:30;;;;;;;46.00;29.42;;;;;;;;;;5155114;27;20078;-78
2023/10/27 00:17:58;;;;;;;45.97;30.80;;;;;;;;;;5154726;27;20043;-79
2023/10/27 00:20:24;;;;;;;43.60;30.75;;;;;;;;;;5136878;27;20086;-79
2023/10/27 00:22:50;;;;;;;42.85;29.45;;;;;;;;;;5154042;27;20129;-79
2023/10/27 00:25:16;;;;;;;41.25;28.60;;;;;;;;;;5136873;27;20379;-79
2023/10/27 00:27:43;;;;;;;41.45;28.00;;;;;;;;;;5136895;27;20137;-79
2023/10/27 00:30:09;;;;;;;44.45;31.05;;;;;;;;;;5153570;27;20435;-78
2023/10/27 00:32:38;;;;;;;45.08;28.70;;;;;;;;;;5154008;27;20034;-78
2023/10/27 00:35:05;;;;;;;50.67;30.98;;;;;;;;;;5153860;27;20470;-78
2023/10/27 00:37:34;;;;;;;49.47;31.85;;;;;;;;;;5156803;27;20043;-78
2023/10/27 00:40:01;;;;;;;47.25;29.75;;;;;;;;;;5157621;27;20038;-79
2023/10/27 00:42:27;;;;;;;48.80;31.17;;;;;;;;;;5159366;27;20401;-78
2023/10/27 00:44:53;;;;;;;45.85;30.65;;;;;;;;;;5158611;27;20481;-79
2023/10/27 00:47:19;;;;;;;44.72;30.42;;;;;;;;;;5158697;27;20093;-79
2023/10/27 00:49:45;;;;;;;44.72;29.05;;;;;;;;;;5158630;27;20420;-79
2023/10/27 00:52:15;;;;;;;39.30;27.33;;;;;;;;;;5140712;27;20039;-79
2023/10/27 00:54:42;;;;;;;40.95;28.50;;;;;;;;;;5157270;27;20051;-79
2023/10/27 00:57:08;;;;;;;40.97;28.42;;;;;;;;;;5157925;27;20092;-78
2023/10/27 00:59:36;;;;;;;38.97;27.30;;;;;;;;;;5140397;27;20080;-78
2023/10/27 01:02:02;;;;;;;39.97;27.02;;;;;;;;;;5157764;27;20121;-79
2023/10/27 01:04:28;;;;;;;38.40;27.55;;;;;;;;;;5158392;27;20046;-78
2023/10/27 01:06:55;;;;;;;37.88;27.10;;;;;;;;;;5157620;27;20047;-78
2023/10/27 01:09:21;;;;;;;37.75;26.58;;;;;;;;;;5158220;27;20043;-78
2023/10/27 01:11:48;;;;;;;38.25;27.48;;;;;;;;;;5157154;27;20043;-78
2023/10/27 01:14:14;;;;;;;40.10;27.00;;;;;;;;;;5157201;27;20115;-79
2023/10/27 01:16:41;;;;;;;36.55;27.08;;;;;;;;;;5158066;27;20045;-79
2023/10/27 01:19:07;;;;;;;34.28;24.23;;;;;;;;;;5157083;27;20054;-79
2023/10/27 01:21:33;;;;;;;35.05;25.67;;;;;;;;;;5139699;27;20466;-78
2023/10/27 01:23:59;;;;;;;36.42;25.85;;;;;;;;;;5139982;27;20118;-78
2023/10/27 01:26:25;;;;;;;34.88;26.65;;;;;;;;;;5157900;27;20046;-78
2023/10/27 01:28:51;;;;;;;35.63;26.02;;;;;;;;;;5156882;27;20046;-78
2023/10/27 01:31:17;;;;;;;34.92;25.02;;;;;;;;;;5139663;27;20480;-78
2023/10/27 01:33:43;;;;;;;34.47;24.95;;;;;;;;;;5139622;27;20035;-78
2023/10/27 01:36:10;;;;;;;40.38;26.73;;;;;;;;;;5156600;27;20126;-79
2023/10/27 01:38:36;;;;;;;35.80;26.08;;;;;;;;;;5156841;27;20447;-78
2023/10/27 01:41:02;;;;;;;36.30;26.23;;;;;;;;;;5156769;27;20051;-79
2023/10/27 01:43:28;;;;;;;39.88;26.77;;;;;;;;;;5156713;27;20039;-78
2023/10/27 01:45:54;;;;;;;44.70;27.45;;;;;;;;;;5156489;27;20030;-79
2023/10/27 01:48:20;;;;;;;34.92;25.17;;;;;;;;;;5156226;27;20046;-79
2023/10/27 01:50:48;;;;;;;38.08;24.85;;;;;;;;;;5156555;27;20074;-79
2023/10/27 01:53:14;;;;;;;48.85;26.73;;;;;;;;;;5156666;27;20039;-78
2023/10/27 01:55:40;;;;;;;37.00;24.73;;;;;;;;;;5156002;27;20129;-79
2023/10/27 01:58:06;;;;;;;37.97;25.10;;;;;;;;;;5157296;27;20050;-79
2023/10/27 02:00:32;;;;;;;35.17;25.17;;;;;;;;;;5157386;27;20096;-78
2023/10/27 02:02:58;;;;;;;34.72;24.17;;;;;;;;;;5156369;27;20050;-79
2023/10/27 02:05:24;;;;;;;39.42;25.80;;;;;;;;;;5156285;27;20374;-78
2023/10/27 02:07:50;;;;;;;36.13;26.42;;;;;;;;;;5158061;27;20045;-78
2023/10/27 02:10:16;;;;;;;35.97;25.92;;;;;;;;;;5156232;27;20050;-78
2023/10/27 02:12:43;;;;;;;40.88;26.73;;;;;;;;;;5156446;27;20046;-78
2023/10/27 02:15:09;;;;;;;34.70;24.58;;;;;;;;;;5156014;27;20047;-78
2023/10/27 02:17:36;;;;;;;38.42;27.27;;;;;;;;;;5156846;27;20135;-79
2023/10/27 02:20:02;;;;;;;38.25;26.15;;;;;;;;;;5138473;27;20134;-79
2023/10/27 02:22:28;;;;;;;39.22;26.00;;;;;;;;;;5155634;27;20045;-78
2023/10/27 02:24:54;;;;;;;39.75;27.13;;;;;;;;;;5155953;27;20047;-79
2023/10/27 02:27:20;;;;;;;37.78;26.60;;;;;;;;;;5156173;27;20074;-80
2023/10/27 02:29:46;;;;;;;39.10;26.52;;;;;;;;;;5157610;27;20050;-78
2023/10/27 02:32:12;;;;;;;40.58;26.23;;;;;;;;;;5139466;27;20111;-78
2023/10/27 02:34:38;;;;;;;41.78;28.45;;;;;;;;;;5155944;27;20038;-79
2023/10/27 02:37:04;;;;;;;39.25;27.15;;;;;;;;;;5138547;27;20426;-79
2023/10/27 02:39:30;;;;;;;39.03;25.92;;;;;;;;;;5155963;27;20095;-79
2023/10/27 02:41:56;;;;;;;37.85;26.85;;;;;;;;;;5155875;27;20103;-79
2023/10/27 02:44:22;;;;;;;40.58;27.83;;;;;;;;;;5156486;27;20034;-79
2023/10/27 02:46:48;;;;;;;41.10;27.95;;;;;;;;;;5138076;27;20086;-79
2023/10/27 02:49:14;;;;;;;40.55;28.08;;;;;;;;;;5155225;27;20050;-79
2023/10/27 02:51:40;;;;;;;44.90;28.65;;;;;;;;;;5156242;27;20034;-79
2023/10/27 02:54:07;;;;;;;43.20;28.90;;;;;;;;;;5139687;27;20038;-79
2023/10/27 02:56:33;;;;;;;42.40;29.30;;;;;;;;;;5158787;27;20060;-78
2023/10/27 02:58:59;;;;;;;39.28;28.02;;;;;;;;;;5140547;27;20470;-80
2023/10/27 03:01:25;;;;;;;42.83;29.92;;;;;;;;;;5177574;27;20045;-81
2023/10/27 03:03:51;;;;;;;42.10;28.92;;;;;;;;;;5158592;27;20061;-80
2023/10/27 03:06:17;;;;;;;50.90;31.30;;;;;;;;;;5159315;27;20429;-80
2023/10/27 03:08:43;;;;;;;40.00;28.42;;;;;;;;;;5158866;27;20048;-80
2023/10/27 03:11:09;;;;;;;45.00;29.58;;;;;;;;;;5176850;27;20042;-80
2023/10/27 03:13:35;;;;;;;45.47;29.40;;;;;;;;;;5158454;27;20461;-80
2023/10/27 03:16:03;;;;;;;42.45;29.42;;;;;;;;;;5158158;27;20497;-80
2023/10/27 03:18:29;;;;;;;38.97;27.65;;;;;;;;;;5158634;27;20080;-80
2023/10/27 03:20:59;;;;;;;42.53;27.95;;;;;;;;;;5177213;27;20038;-80
2023/10/27 03:23:25;;;;;;;42.10;27.95;;;;;;;;;;5140945;27;20049;-80
2023/10/27 03:25:52;;;;;;;41.20;27.92;;;;;;;;;;5176650;27;20037;-81
2023/10/27 03:28:18;;;;;;;40.40;27.75;;;;;;;;;;5158245;27;20128;-80
2023/10/27 03:30:45;;;;;;;37.95;27.65;;;;;;;;;;5141709;27;20126;-80
2023/10/27 03:33:11;;;;;;;36.90;26.58;;;;;;;;;;5176500;27;20042;-81
2023/10/27 03:35:40;;;;;;;35.15;27.05;;;;;;;;;;5157966;27;20042;-80
2023/10/27 03:38:06;;;;;;;38.63;28.17;;;;;;;;;;5158923;27;20042;-81
2023/10/27 03:40:32;;;;;;;43.40;28.65;;;;;;;;;;5176999;27;20188;-80
2023/10/27 03:42:58;;;;;;;35.92;26.17;;;;;;;;;;5141521;27;20045;-80
2023/10/27 03:45:25;;;;;;;37.65;26.67;;;;;;;;;;5140674;27;20042;-80
2023/10/27 03:47:51;;;;;;;36.50;26.85;;;;;;;;;;5140715;27;20138;-80
2023/10/27 03:50:17;;;;;;;42.17;27.10;;;;;;;;;;5158427;27;20046;-80
2023/10/27 03:52:43;;;;;;;34.00;24.80;;;;;;;;;;5157692;27;20046;-80
2023/10/27 03:55:11;;;;;;;38.88;27.05;;;;;;;;;;5175975;27;20077;-80
2023/10/27 03:57:39;;;;;;;39.45;25.83;;;;;;;;;;5141297;27;20046;-80
2023/10/27 04:00:07;;;;;;;38.28;26.85;;;;;;;;;;5176163;27;20042;-80
2023/10/27 04:02:33;;;;;;;39.55;27.40;;;;;;;;;;5141545;27;20488;-80
2023/10/27 04:04:59;;;;;;;39.83;26.85;;;;;;;;;;5158533;27;20050;-81
2023/10/27 04:07:25;;;;;;;38.53;26.65;;;;;;;;;;5176625;27;20087;-80
2023/10/27 04:09:51;;;;;;;37.55;25.90;;;;;;;;;;5157694;27;20067;-80
2023/10/27 04:12:17;;;;;;;37.92;27.30;;;;;;;;;;5161757;27;20393;-80
2023/10/27 04:14:43;;;;;;;35.95;25.83;;;;;;;;;;5162620;27;20049;-80
2023/10/27 04:17:10;;;;;;;40.08;26.48;;;;;;;;;;5161801;27;20042;-80
2023/10/27 04:19:36;;;;;;;35.80;24.83;;;;;;;;;;5180746;27;20423;-80
2023/10/27 04:22:02;;;;;;;37.22;26.45;;;;;;;;;;5180061;27;20046;-80
2023/10/27 04:24:28;;;;;;;38.25;27.45;;;;;;;;;;5161595;27;20114;-80
2023/10/27 04:26:55;;;;;;;35.67;25.50;;;;;;;;;;5145294;27;20046;-80
2023/10/27 04:29:21;;;;;;;38.00;26.67;;;;;;;;;;5161625;27;20080;-81
2023/10/27 04:31:47;;;;;;;45.95;27.77;;;;;;;;;;5161751;27;20401;-80
2023/10/27 04:34:13;;;;;;;37.42;26.27;;;;;;;;;;5127936;27;20416;-80
2023/10/27 04:36:40;;;;;;;49.28;28.10;;;;;;;;;;5161157;27;20050;-80
2023/10/27 04:39:06;;;;;;;37.22;26.70;;;;;;;;;;5161513;27;20067;-80
2023/10/27 04:41:33;;;;;;;43.70;26.77;;;;;;;;;;5179640;27;20078;-80
2023/10/27 04:43:59;;;;;;;40.67;27.00;;;;;;;;;;5161878;27;20438;-80
2023/10/27 04:46:26;;;;;;;39.85;26.02;;;;;;;;;;5161332;27;20129;-80
2023/10/27 04:48:52;;;;;;;38.75;25.98;;;;;;;;;;5161983;27;20470;-80
2023/10/27 04:51:20;;;;;;;39.90;26.85;;;;;;;;;;5161407;27;20057;-81
2023/10/27 04:53:47;;;;;;;42.67;27.02;;;;;;;;;;5160690;27;20057;-80
2023/10/27 04:56:13;;;;;;;37.65;25.65;;;;;;;;;;5160362;27;20406;-80
2023/10/27 04:58:42;;;;;;;37.25;25.42;;;;;;;;;;5161000;27;20087;-80
2023/10/27 05:01:08;;;;;;;37.67;25.40;;;;;;;;;;5160813;27;20091;-81
2023/10/27 05:03:34;;;;;;;37.53;25.60;;;;;;;;;;5160873;27;20130;-81
2023/10/27 05:06:10;;;;;;;40.67;27.33;;;;;;;;;;5161305;27;20034;-80
2023/10/27 05:08:36;;;;;;;36.42;25.83;;;;;;;;;;5179453;27;20053;-80
2023/10/27 05:11:03;;;;;;;36.13;25.88;;;;;;;;;;5143536;27;20049;-80
2023/10/27 05:13:30;;;;;;;39.50;26.70;;;;;;;;;;5160706;27;20046;-80
2023/10/27 05:15:56;;;;;;;39.17;25.73;;;;;;;;;;5179892;27;20043;-80
2023/10/27 05:18:22;;;;;;;38.67;25.60;;;;;;;;;;5160915;27;20098;-80
2023/10/27 05:20:48;;;;;;;35.45;24.05;;;;;;;;;;5179013;27;20042;-80
2023/10/27 05:23:14;;;;;;;43.30;25.02;;;;;;;;;;5160049;27;20050;-80
2023/10/27 05:25:41;;;;;;;39.90;26.90;;;;;;;;;;5125916;27;20049;-80
2023/10/27 05:28:10;;;;;;;39.47;24.90;;;;;;;;;;5161228;27;20038;-80
2023/10/27 05:30:36;;;;;;;37.33;24.95;;;;;;;;;;5179577;27;20418;-80
2023/10/27 05:33:02;;;;;;;40.08;25.30;;;;;;;;;;5160208;27;20077;-80
2023/10/27 05:35:28;;;;;;;34.25;23.80;;;;;;;;;;5178775;27;20494;-81
2023/10/27 05:37:55;;;;;;;32.78;23.40;;;;;;;;;;5178723;27;20045;-80
2023/10/27 05:40:21;;;;;;;36.97;25.45;;;;;;;;;;5160846;27;20042;-81
2023/10/27 05:42:47;;;;;;;37.22;25.77;;;;;;;;;;5143015;27;20042;-81
2023/10/27 05:45:13;;;;;;;38.65;26.98;;;;;;;;;;5143723;27;20050;-80
2023/10/27 05:47:40;;;;;;;38.75;24.83;;;;;;;;;;5160337;27;20050;-80
2023/10/27 05:50:07;;;;;;;34.15;24.35;;;;;;;;;;5159995;27;20098;-81
2023/10/27 05:52:33;;;;;;;37.05;25.70;;;;;;;;;;5159932;27;20072;-80
2023/10/27 05:54:59;;;;;;;35.15;24.65;;;;;;;;;;5159279;27;20086;-80
2023/10/27 05:57:25;;;;;;;33.53;24.38;;;;;;;;;;5159866;27;20102;-80
2023/10/27 05:59:51;;;;;;;39.22;26.00;;;;;;;;;;5178254;27;20078;-80
2023/10/27 06:02:17;;;;;;;37.67;26.23;;;;;;;;;;5159798;27;20054;-80
2023/10/27 06:04:43;;;;;;;37.30;24.45;;;;;;;;;;5160069;27;20038;-80
2023/10/27 06:07:09;;;;;;;36.13;24.35;;;;;;;;;;5159686;27;20061;-80
2023/10/27 06:09:37;;;;;;;34.95;25.27;;;;;;;;;;5159969;27;20050;-80
2023/10/27 06:12:03;;;;;;;36.95;24.92;;;;;;;;;;5159544;27;20092;-80
2023/10/27 06:14:29;;;;;;;38.45;25.17;;;;;;;;;;5159728;27;20098;-80
2023/10/27 06:16:56;;;;;;;38.45;25.80;;;;;;;;;;5158781;27;20129;-80
2023/10/27 06:19:22;;;;;;;35.95;25.15;;;;;;;;;;5159283;27;20482;-80
2023/10/27 06:21:48;;;;;;;40.10;25.50;;;;;;;;;;5159123;27;20484;-80
2023/10/27 06:24:14;;;;;;;39.40;25.10;;;;;;;;;;5159226;27;20042;-80
2023/10/27 06:26:40;;;;;;;39.53;26.27;;;;;;;;;;5159595;27;20042;-81
2023/10/27 06:29:06;;;;;;;37.42;26.52;;;;;;;;;;5159163;27;20073;-80
2023/10/27 06:31:32;;;;;;;40.65;26.67;;;;;;;;;;5177285;27;20133;-80
2023/10/27 06:33:59;;;;;;;40.63;26.75;;;;;;;;;;5140992;27;20451;-80
2023/10/27 06:36:25;;;;;;;40.10;26.08;;;;;;;;;;5158912;27;20537;-80
2023/10/27 06:38:52;;;;;;;45.75;29.42;;;;;;;;;;5158957;27;20125;-80
2023/10/27 06:41:18;;;;;;;44.70;29.25;;;;;;;;;;5177347;27;20423;-80
2023/10/27 06:43:44;;;;;;;48.20;29.45;;;;;;;;;;5141867;27;20446;-80
2023/10/27 06:46:10;;;;;;;55.33;31.83;;;;;;;;;;5177210;27;20084;-80
2023/10/27 06:48:37;;;;;;;52.70;31.63;;;;;;;;;;5177108;27;20042;-80
2023/10/27 06:51:03;;;;;;;57.00;33.97;;;;;;;;;;5177025;27;20065;-82
2023/10/27 06:53:29;;;;;;;54.10;32.00;;;;;;;;;;5158477;27;20064;-80
2023/10/27 06:55:55;;;;;;;61.25;33.65;;;;;;;;;;5116971;27;20049;-80
2023/10/27 06:58:21;;;;;;;58.92;33.70;;;;;;;;;;5134414;27;20054;-80
2023/10/27 07:00:47;;;;;;;57.33;35.63;;;;;;;;;;5136133;27;20043;-81
2023/10/27 07:03:14;;;;;;;52.20;33.85;;;;;;;;;;5134588;27;20046;-80
2023/10/27 07:05:40;;;;;;;52.63;32.55;;;;;;;;;;5134070;27;20039;-80
2023/10/27 07:08:06;;;;;;;53.83;33.65;;;;;;;;;;5134304;27;20123;-80
2023/10/27 07:10:33;;;;;;;53.83;32.65;;;;;;;;;;5133760;27;20499;-80
2023/10/27 07:12:59;;;;;;;54.53;34.33;;;;;;;;;;5134168;27;20050;-80
2023/10/27 07:15:25;;;;;;;52.50;32.30;;;;;;;;;;5117060;27;20051;-80
2023/10/27 07:17:51;;;;;;;48.65;30.85;;;;;;;;;;5133827;27;20047;-81
2023/10/27 07:20:17;;;;;;;49.03;31.35;;;;;;;;;;5116880;27;20479;-81
2023/10/27 07:22:44;;;;;;;44.95;30.00;;;;;;;;;;5116763;27;20050;-80
2023/10/27 07:25:10;;;;;;;43.20;28.67;;;;;;;;;;5134650;27;20035;-80
2023/10/27 07:27:36;;;;;;;41.92;27.75;;;;;;;;;;5134330;27;20054;-80
2023/10/27 07:30:02;;;;;;;43.15;27.50;;;;;;;;;;5135500;27;20474;-80
2023/10/27 07:32:29;;;;;;;37.92;25.70;;;;;;;;;;5117077;27;20394;-80
2023/10/27 07:34:55;;;;;;;39.67;26.73;;;;;;;;;;5116751;27;20083;-80
2023/10/27 07:37:23;;;;;;;42.58;26.58;;;;;;;;;;5134188;27;20100;-80
2023/10/27 07:39:49;;;;;;;39.25;26.67;;;;;;;;;;5133805;27;20047;-80
2023/10/27 07:42:15;;;;;;;44.97;27.45;;;;;;;;;;5099859;27;20463;-80
2023/10/27 07:44:41;;;;;;;39.05;26.52;;;;;;;;;;5134703;27;20047;-80
2023/10/27 07:47:07;;;;;;;39.67;26.75;;;;;;;;;;5134292;27;20362;-81
2023/10/27 07:49:33;;;;;;;38.70;26.98;;;;;;;;;;5133761;28;20058;-80
2023/10/27 07:52:00;;;;;;;38.05;26.38;;;;;;;;;;5133572;28;20047;-80
2023/10/27 07:54:26;;;;;;;38.17;26.48;;;;;;;;;;5138523;27;20047;-80
2023/10/27 07:56:52;;;;;;;36.58;25.13;;;;;;;;;;5177457;27;20454;-80
2023/10/27 07:59:18;;;;;;;40.17;25.73;;;;;;;;;;5157735;27;20061;-80
2023/10/27 08:01:45;;;;;;;42.17;26.42;;;;;;;;;;5176721;27;20050;-80
2023/10/27 08:04:12;;;;;;;38.50;26.88;;;;;;;;;;5158058;27;20390;-80
2023/10/27 08:06:38;;;;;;;36.05;25.15;;;;;;;;;;5157431;27;20062;-80
2023/10/27 08:09:04;;;;;;;41.00;26.33;;;;;;;;;;5157717;27;20073;-80
2023/10/27 08:11:30;;;;;;;37.83;25.30;;;;;;;;;;5158583;27;20086;-81
2023/10/27 08:13:57;;;;;;;35.95;25.70;;;;;;;;;;5157869;27;20090;-80
2023/10/27 08:16:23;;;;;;;41.35;26.10;;;;;;;;;;5140489;27;20466;-80
2023/10/27 08:18:49;;;;;;;37.47;25.05;;;;;;;;;;5157668;27;20046;-80
2023/10/27 08:21:15;;;;;;;38.08;25.60;;;;;;;;;;5175924;27;20042;-80
2023/10/27 08:23:41;;;;;;;38.22;25.83;;;;;;;;;;5140311;27;20046;-80
2023/10/27 08:26:09;;;;;;;37.67;25.52;;;;;;;;;;5140346;27;20042;-81
2023/10/27 08:28:35;;;;;;;39.00;25.70;;;;;;;;;;5157331;27;20077;-80
2023/10/27 08:31:01;;;;;;;41.28;25.90;;;;;;;;;;5140356;27;20463;-81
2023/10/27 08:33:27;;;;;;;39.67;24.60;;;;;;;;;;5140352;27;20042;-80
2023/10/27 08:35:53;;;;;;;37.03;24.48;;;;;;;;;;5140092;27;20042;-81
2023/10/27 08:38:19;;;;;;;39.30;24.77;;;;;;;;;;5158352;27;20109;-81
2023/10/27 08:40:46;;;;;;;37.05;24.10;;;;;;;;;;5157729;27;20145;-80
2023/10/27 08:43:12;;;;;;;39.83;25.35;;;;;;;;;;5157133;27;20038;-81
2023/10/27 08:45:39;;;;;;;34.60;23.73;;;;;;;;;;5140131;27;20082;-81
2023/10/27 08:48:05;;;;;;;37.58;25.42;;;;;;;;;;5157287;27;20550;-81
2023/10/27 08:50:32;;;;;;;36.17;24.52;;;;;;;;;;5140203;27;20042;-82
2023/10/27 08:52:59;;;;;;;41.05;26.33;;;;;;;;;;5123393;27;20046;-82
2023/10/27 08:55:25;;;;;;;38.42;25.10;;;;;;;;;;5175482;27;20059;-81
2023/10/27 08:57:55;;;;;;;40.78;26.58;;;;;;;;;;5177078;27;20058;-82
2023/10/27 09:00:21;;;;;;;36.30;25.52;;;;;;;;;;5160993;27;20050;-81
2023/10/27 09:02:47;;;;;;;36.30;24.80;;;;;;;;;;5161874;27;20042;-82
2023/10/27 09:05:14;;;;;;;51.83;26.50;;;;;;;;;;5179293;27;20060;-82
2023/10/27 09:07:40;;;;;;;36.63;24.48;;;;;;;;;;5179236;27;20042;-82
2023/10/27 09:10:07;;;;;;;33.30;22.80;;;;;;;;;;5161712;27;20034;-82
2023/10/27 09:12:36;;;;;;;36.80;24.52;;;;;;;;;;5160980;27;20038;-83
2023/10/27 09:15:04;;;;;;;36.25;24.02;;;;;;;;;;5160884;27;20065;-84
2023/10/27 09:17:31;;;;;;;34.55;23.65;;;;;;;;;;5143358;27;20038;-84
2023/10/27 09:20:06;;;;;;;38.03;23.15;;;;;;;;;;5143355;27;20053;-84
2023/10/27 09:22:33;;;;;;;31.88;21.48;;;;;;;;;;5160936;27;20050;-84
2023/10/27 09:25:17;;;;;;;33.83;22.67;;;;;;;;;;5160931;27;20371;-84
2023/10/27 09:27:44;;;;;;;30.27;20.52;;;;;;;;;;5180062;27;20133;-84
2023/10/27 09:30:14;;;;;;;33.30;21.52;;;;;;;;;;5144215;27;20057;-84
2023/10/27 09:32:43;;;;;;;34.80;22.63;;;;;;;;;;5160925;27;20112;-85
2023/10/27 09:35:17;;;;;;;34.60;21.85;;;;;;;;;;5178512;27;20498;-85
2023/10/27 09:37:46;;;;;;;31.67;21.95;;;;;;;;;;5160706;27;20098;-85
2023/10/27 09:40:13;;;;;;;29.48;21.77;;;;;;;;;;5178823;27;20042;-85
2023/10/27 09:42:40;;;;;;;33.97;22.08;;;;;;;;;;5160417;27;20125;-85
2023/10/27 09:45:13;;;;;;;31.63;21.83;;;;;;;;;;5161124;27;20042;-84
2023/10/27 09:47:47;;;;;;;34.22;21.70;;;;;;;;;;5143177;27;20049;-85
2023/10/27 09:50:20;;;;;;;33.83;21.75;;;;;;;;;;5159940;27;20038;-85
2023/10/27 09:52:46;;;;;;;32.47;21.15;;;;;;;;;;5159804;27;20042;-85
2023/10/27 09:55:13;;;;;;;30.85;20.95;;;;;;;;;;5178547;27;20055;-85
2023/10/27 09:57:46;;;;;;;32.40;21.73;;;;;;;;;;5160017;27;20077;-85
2023/10/27 10:00:20;;;;;;;29.77;21.70;;;;;;;;;;5143062;27;20042;-85
2023/10/27 10:02:46;;;;;;;37.47;22.73;;;;;;;;;;5160019;27;20038;-85
2023/10/27 10:05:12;;;;;;;32.30;21.10;;;;;;;;;;5143928;27;20089;-85
2023/10/27 10:07:42;;;;;;;34.38;21.98;;;;;;;;;;5142390;27;20077;-85
2023/10/27 10:10:18;;;;;;;34.65;21.50;;;;;;;;;;5159439;27;20098;-84
2023/10/27 10:13:03;;;;;;;30.05;20.80;;;;;;;;;;5159702;27;20049;-84
2023/10/27 10:15:31;;;;;;;30.60;20.90;;;;;;;;;;5143023;27;20065;-85
2023/10/27 10:17:57;;;;;;;31.33;21.20;;;;;;;;;;5159740;27;20038;-84
2023/10/27 10:20:44;;;;;;;28.95;21.42;;;;;;;;;;5177859;27;20049;-84
2023/10/27 10:23:10;;;;;;;32.38;21.60;;;;;;;;;;5159365;27;20050;-85
2023/10/27 10:25:36;;;;;;;31.83;22.80;;;;;;;;;;5159651;27;20042;-85
2023/10/27 10:28:09;;;;;;;31.83;21.27;;;;;;;;;;5124959;27;20137;-85
2023/10/27 10:30:42;;;;;;;33.65;22.05;;;;;;;;;;5159263;27;20042;-85
2023/10/27 10:33:14;;;;;;;37.13;24.08;;;;;;;;;;5159002;27;20046;-85
2023/10/27 10:35:40;;;;;;;37.22;23.63;;;;;;;;;;5159021;27;20050;-85
2023/10/27 10:38:22;;;;;;;40.42;25.05;;;;;;;;;;5159146;27;20381;-86
2023/10/27 10:40:55;;;;;;;36.15;24.02;;;;;;;;;;5159122;27;20054;-85
2023/10/27 10:43:24;;;;;;;32.78;22.70;;;;;;;;;;5159835;27;20050;-85
2023/10/27 10:45:54;;;;;;;38.33;24.83;;;;;;;;;;5158941;27;20144;-84
2023/10/27 10:48:46;;;;;;;35.58;25.13;;;;;;;;;;5177889;27;20046;-85
2023/10/27 10:51:29;;;;;;;32.80;24.02;;;;;;;;;;5166361;27;20050;-85
2023/10/27 10:53:55;;;;;;;36.22;24.77;;;;;;;;;;5158899;27;20124;-84
2023/10/27 10:56:22;;;;;;;36.45;25.42;;;;;;;;;;5176904;27;20141;-84
2023/10/27 10:58:48;;;;;;;35.63;24.50;;;;;;;;;;5158520;27;20054;-84
2023/10/27 11:01:18;;;;;;;32.83;24.65;;;;;;;;;;5158936;27;20118;-85
2023/10/27 11:03:48;;;;;;;36.60;25.05;;;;;;;;;;5158319;27;20042;-84
2023/10/27 11:06:14;;;;;;;34.25;24.58;;;;;;;;;;5177229;27;20081;-84
2023/10/27 11:08:40;;;;;;;32.78;25.00;;;;;;;;;;5176906;27;20042;-84
2023/10/27 11:11:08;;;;;;;37.08;26.13;;;;;;;;;;5159285;27;20097;-83
2023/10/27 11:13:39;;;;;;;44.63;26.00;;;;;;;;;;5141279;27;20042;-83
2023/10/27 11:16:13;;;;;;;40.60;26.13;;;;;;;;;;5158570;27;20038;-83
2023/10/27 11:18:39;;;;;;;31.95;24.45;;;;;;;;;;5176774;27;20050;-83
2023/10/27 11:21:05;;;;;;;34.00;25.63;;;;;;;;;;5140333;27;20038;-83
2023/10/27 11:23:31;;;;;;;37.50;25.25;;;;;;;;;;5158706;27;20042;-84
2023/10/27 11:26:05;;;;;;;37.97;25.90;;;;;;;;;;5140742;27;20046;-83
2023/10/27 11:28:36;;;;;;;33.25;25.52;;;;;;;;;;5141275;27;20400;-83
2023/10/27 11:31:20;;;;;;;59.80;29.65;;;;;;;;;;5157938;27;20089;-83
2023/10/27 11:33:56;;;;;;;36.22;25.83;;;;;;;;;;5157893;27;20046;-83
2023/10/27 11:36:22;;;;;;;34.53;26.08;;;;;;;;;;5157939;27;20050;-83
2023/10/27 11:38:48;;;;;;;32.80;25.52;;;;;;;;;;5140422;27;20109;-83
2023/10/27 11:41:14;;;;;;;32.80;24.85;;;;;;;;;;5158344;27;20042;-83
2023/10/27 11:43:40;;;;;;;32.28;23.45;;;;;;;;;;5140836;27;20054;-83
2023/10/27 11:46:11;;;;;;;28.40;21.83;;;;;;;;;;5176044;27;20038;-83
2023/10/27 11:48:37;;;;;;;32.25;23.27;;;;;;;;;;5140872;27;20042;-83
2023/10/27 11:51:03;;;;;;;28.85;22.05;;;;;;;;;;5176300;27;20042;-83
2023/10/27 11:53:29;;;;;;;26.63;21.27;;;;;;;;;;5157684;27;20053;-83
2023/10/27 11:55:56;;;;;;;29.65;21.80;;;;;;;;;;5157685;27;20082;-83
2023/10/27 11:58:22;;;;;;;51.05;25.05;;;;;;;;;;5157669;27;20393;-82
2023/10/27 12:00:48;;;;;;;29.17;21.95;;;;;;;;;;5176230;27;20638;-81
2023/10/27 12:03:14;;;;;;;27.38;21.15;;;;;;;;;;5176229;27;20047;-82
2023/10/27 12:05:40;;;;;;;28.75;21.30;;;;;;;;;;5176725;27;20077;-81
2023/10/27 12:08:06;;;;;;;26.27;21.33;;;;;;;;;;5176181;27;20074;-81
2023/10/27 12:10:33;;;;;;;26.98;21.10;;;;;;;;;;5158633;27;20042;-81
2023/10/27 12:12:59;;;;;;;27.52;22.15;;;;;;;;;;5157565;27;20405;-82
2023/10/27 12:15:25;;;;;;;26.08;21.40;;;;;;;;;;5176046;27;20103;-82
2023/10/27 12:17:51;;;;;;;30.83;21.88;;;;;;;;;;5157682;27;20481;-83
2023/10/27 12:20:17;;;;;;;27.60;22.00;;;;;;;;;;5176044;27;20045;-83
2023/10/27 12:22:46;;;;;;;51.05;26.13;;;;;;;;;;5140278;27;20101;-84
2023/10/27 12:25:13;;;;;;;28.42;22.25;;;;;;;;;;5157927;27;20063;-84
2023/10/27 12:27:39;;;;;;;42.92;23.40;;;;;;;;;;5158415;27;20374;-85
2023/10/27 12:30:06;;;;;;;27.10;21.25;;;;;;;;;;5157569;27;20039;-84
2023/10/27 12:32:35;;;;;;;30.98;21.73;;;;;;;;;;5160248;27;20046;-84
2023/10/27 12:35:01;;;;;;;28.15;21.20;;;;;;;;;;5161726;27;20109;-84
2023/10/27 12:37:27;;;;;;;26.70;20.95;;;;;;;;;;5180484;27;20382;-84
2023/10/27 12:39:53;;;;;;;41.42;24.88;;;;;;;;;;5143894;27;20042;-84
2023/10/27 12:42:20;;;;;;;29.55;22.25;;;;;;;;;;5161483;27;20052;-85
2023/10/27 12:44:46;;;;;;;26.27;20.73;;;;;;;;;;5161328;27;20042;-84
2023/10/27 12:47:12;;;;;;;27.60;20.77;;;;;;;;;;5162117;27;20477;-85
2023/10/27 12:49:41;;;;;;;30.25;22.15;;;;;;;;;;5162099;27;20068;-85
2023/10/27 12:52:07;;;;;;;29.63;21.48;;;;;;;;;;5161243;27;20405;-84
2023/10/27 12:54:36;;;;;;;23.23;19.55;;;;;;;;;;5161065;27;20093;-84
2023/10/27 12:57:03;;;;;;;43.88;23.45;;;;;;;;;;5179862;27;20086;-84
2023/10/27 12:59:30;;;;;;;36.15;23.30;;;;;;;;;;5161564;27;20137;-84
2023/10/27 13:01:57;;;;;;;26.50;20.33;;;;;;;;;;5179439;27;20049;-84
2023/10/27 13:04:24;;;;;;;27.48;21.00;;;;;;;;;;5161043;27;20046;-84
2023/10/27 13:06:53;;;;;;;23.65;18.77;;;;;;;;;;5161868;27;20045;-84
2023/10/27 13:09:20;;;;;;;59.70;25.77;;;;;;;;;;5160682;27;20042;-84
2023/10/27 13:11:53;;;;;;;25.92;19.95;;;;;;;;;;5161097;27;20499;-84
2023/10/27 13:14:21;;;;;;;23.48;19.48;;;;;;;;;;5161796;27;20065;-84
2023/10/27 13:16:48;;;;;;;25.75;19.85;;;;;;;;;;5160895;27;20049;-84
2023/10/27 13:19:14;;;;;;;24.65;19.92;;;;;;;;;;5160652;27;20046;-85
2023/10/27 13:21:40;;;;;;;29.80;20.58;;;;;;;;;;5143302;27;20042;-84
2023/10/27 13:24:06;;;;;;;27.92;21.40;;;;;;;;;;5179022;27;20050;-85
2023/10/27 13:26:32;;;;;;;24.15;19.98;;;;;;;;;;5160592;27;20090;-85
2023/10/27 13:28:59;;;;;;;26.13;20.95;;;;;;;;;;5143306;27;20050;-84
2023/10/27 13:31:29;;;;;;;26.58;21.05;;;;;;;;;;5160446;27;20050;-84
2023/10/27 13:33:57;;;;;;;23.48;20.13;;;;;;;;;;5179167;27;20042;-84
2023/10/27 13:36:23;;;;;;;28.90;21.88;;;;;;;;;;5143350;27;20042;-84
2023/10/27 13:38:49;;;;;;;25.83;19.90;;;;;;;;;;5142609;27;20098;-84
2023/10/27 13:41:18;;;;;;;25.25;20.92;;;;;;;;;;5160028;27;20470;-85
2023/10/27 13:43:47;;;;;;;25.88;20.30;;;;;;;;;;5159535;27;20042;-84
2023/10/27 13:46:17;;;;;;;24.50;20.80;;;;;;;;;;5143773;27;20098;-84
2023/10/27 13:48:44;;;;;;;23.88;19.67;;;;;;;;;;5160154;27;20042;-85
2023/10/27 13:51:11;;;;;;;76.70;26.83;;;;;;;;;;5178495;27;20067;-84
2023/10/27 13:53:38;;;;;;;47.95;25.42;;;;;;;;;;5142630;27;20056;-84
2023/10/27 13:56:06;;;;;;;26.05;20.63;;;;;;;;;;5159292;27;20490;-84
2023/10/27 13:58:32;;;;;;;25.45;20.05;;;;;;;;;;5159855;27;20409;-84
2023/10/27 14:01:01;;;;;;;25.88;20.55;;;;;;;;;;5160222;27;20049;-84
2023/10/27 14:03:27;;;;;;;26.83;20.17;;;;;;;;;;5126074;27;20046;-85
2023/10/27 14:05:53;;;;;;;27.55;21.45;;;;;;;;;;5159861;27;20038;-84
2023/10/27 14:08:20;;;;;;;25.85;20.88;;;;;;;;;;5160565;27;20042;-84
2023/10/27 14:10:46;;;;;;;35.47;22.08;;;;;;;;;;5143181;27;20126;-84
2023/10/27 14:13:13;;;;;;;29.98;20.67;;;;;;;;;;5143333;27;20046;-84
2023/10/27 14:15:39;;;;;;;24.50;19.17;;;;;;;;;;5143241;27;20154;-84